createdAt,value
2023-02-09T00:01:08.530Z,95.00
2023-02-09T00:03:36.929Z,95.40
2023-02-09T00:06:04.398Z,95.40
2023-02-09T00:08:31.929Z,95.50
2023-02-09T00:11:00.243Z,96.10
2023-02-09T00:13:27.767Z,96.10
2023-02-09T00:15:56.072Z,96.40
2023-02-09T00:18:23.665Z,96.30
2023-02-09T00:21:06.413Z,96.60
2023-02-09T00:23:33.968Z,97.00
2023-02-09T00:26:01.598Z,97.50
2023-02-09T00:28:29.073Z,97.70
2023-02-09T00:30:56.641Z,98.00
2023-02-09T00:33:24.140Z,98.00
2023-02-09T00:35:51.673Z,98.00
2023-02-09T00:38:19.994Z,98.00
2023-02-09T00:40:47.518Z,98.00
2023-02-09T00:43:15.054Z,98.10
2023-02-09T00:45:42.703Z,98.30
2023-02-09T00:48:10.924Z,98.50
2023-02-09T00:50:38.475Z,98.50
2023-02-09T00:53:06.022Z,98.70
2023-02-09T00:55:34.340Z,99.10
2023-02-09T00:58:01.885Z,99.10
2023-02-09T01:00:29.462Z,99.30
2023-02-09T01:02:57.003Z,99.50
2023-02-09T01:05:24.523Z,99.70
2023-02-09T01:07:53.088Z,99.90
2023-02-09T01:10:20.586Z,99.90
2023-02-09T01:12:48.120Z,99.90
2023-02-09T01:15:16.726Z,99.90
2023-02-09T01:17:44.280Z,99.90
2023-02-09T01:20:11.961Z,99.90
2023-02-09T01:22:39.545Z,99.90
2023-02-09T01:25:07.119Z,99.90
2023-02-09T01:27:34.676Z,99.90
2023-02-09T01:30:02.279Z,99.90
2023-02-09T01:32:30.589Z,99.90
2023-02-09T01:34:58.113Z,99.90
2023-02-09T01:37:25.659Z,99.90
2023-02-09T01:39:53.996Z,99.90
2023-02-09T01:42:21.534Z,99.90
2023-02-09T01:44:59.040Z,99.90
2023-02-09T01:47:26.595Z,99.90
2023-02-09T01:49:54.115Z,99.90
2023-02-09T01:52:22.450Z,99.90
2023-02-09T01:54:56.136Z,99.90
2023-02-09T01:57:23.663Z,99.90
2023-02-09T01:59:51.235Z,99.90
2023-02-09T02:02:18.794Z,99.90
2023-02-09T02:04:47.057Z,99.90
2023-02-09T02:07:17.336Z,99.90
2023-02-09T02:09:44.869Z,99.90
2023-02-09T02:12:12.394Z,99.90
2023-02-09T02:14:39.969Z,99.90
2023-02-09T02:17:28.392Z,99.90
2023-02-09T02:20:14.576Z,99.90
2023-02-09T02:23:01.163Z,99.90
2023-02-09T02:25:47.118Z,99.90
2023-02-09T02:28:38.764Z,99.90
2023-02-09T02:31:09.621Z,99.90
2023-02-09T02:33:43.792Z,99.90
2023-02-09T02:36:29.404Z,99.90
2023-02-09T02:39:08.300Z,99.90
2023-02-09T02:41:38.315Z,99.90
2023-02-09T02:44:08.553Z,99.90
2023-02-09T02:46:53.878Z,99.90
2023-02-09T02:49:31.225Z,99.90
2023-02-09T02:51:58.797Z,99.90
2023-02-09T02:54:26.321Z,99.90
2023-02-09T02:56:53.898Z,99.90
2023-02-09T02:59:24.191Z,99.90
2023-02-09T03:02:03.443Z,99.90
2023-02-09T03:04:30.996Z,99.90
2023-02-09T03:06:58.550Z,99.90
2023-02-09T03:09:26.097Z,99.90
2023-02-09T03:11:53.700Z,99.90
2023-02-09T03:14:29.918Z,99.90
2023-02-09T03:17:27.877Z,99.90
2023-02-09T03:19:58.917Z,99.90
2023-02-09T03:22:29.909Z,99.90
2023-02-09T03:24:57.425Z,99.90
2023-02-09T03:27:25.761Z,99.90
2023-02-09T03:29:53.259Z,99.90
2023-02-09T03:32:20.841Z,99.90
2023-02-09T03:34:48.380Z,99.90
2023-02-09T03:37:16.680Z,99.90
2023-02-09T03:39:44.290Z,99.90
2023-02-09T03:42:11.801Z,99.90
2023-02-09T03:44:39.350Z,99.90
2023-02-09T03:47:06.928Z,99.90
2023-02-09T03:49:34.512Z,99.90
2023-02-09T03:52:02.062Z,99.90
2023-02-09T03:54:29.650Z,99.90
2023-02-09T03:56:57.198Z,99.90
2023-02-09T03:59:27.381Z,99.90
2023-02-09T04:01:54.939Z,99.90
2023-02-09T04:04:22.474Z,99.90
2023-02-09T04:06:49.998Z,99.90
2023-02-09T04:09:17.565Z,99.90
2023-02-09T04:11:45.866Z,99.90
2023-02-09T04:14:13.403Z,99.90
2023-02-09T04:16:40.944Z,99.90
2023-02-09T04:19:08.480Z,99.90
2023-02-09T04:21:36.151Z,99.90
2023-02-09T04:24:03.670Z,99.90
2023-02-09T04:26:31.202Z,99.90
2023-02-09T04:28:59.508Z,99.90
2023-02-09T04:31:27.234Z,99.90
2023-02-09T04:33:54.615Z,99.90
2023-02-09T04:36:22.141Z,99.90
2023-02-09T04:38:49.717Z,99.90
2023-02-09T04:41:18.030Z,99.90
2023-02-09T04:43:48.283Z,99.90
2023-02-09T04:46:15.958Z,99.90
2023-02-09T04:48:44.182Z,99.90
2023-02-09T04:51:11.709Z,99.90
2023-02-09T04:53:40.532Z,99.90
2023-02-09T04:56:08.052Z,99.90
2023-02-09T04:58:54.521Z,99.90
2023-02-09T05:01:22.110Z,99.90
2023-02-09T05:03:49.613Z,99.90
2023-02-09T05:06:17.190Z,99.90
2023-02-09T05:08:44.734Z,99.90
2023-02-09T05:11:12.287Z,99.90
2023-02-09T05:13:40.163Z,99.90
2023-02-09T05:16:07.770Z,99.90
2023-02-09T05:18:35.254Z,99.90
2023-02-09T05:21:02.839Z,99.90
2023-02-09T05:23:30.377Z,99.90
2023-02-09T05:25:57.911Z,99.90
2023-02-09T05:28:25.550Z,99.90
2023-02-09T05:30:53.132Z,99.90
2023-02-09T05:33:23.249Z,99.90
2023-02-09T05:35:51.876Z,99.90
2023-02-09T05:38:19.412Z,99.90
2023-02-09T05:40:48.061Z,99.90
2023-02-09T05:43:15.259Z,99.90
2023-02-09T05:45:42.814Z,99.90
2023-02-09T05:48:11.086Z,99.90
2023-02-09T05:50:38.663Z,99.90
2023-02-09T05:53:06.194Z,99.90
2023-02-09T05:55:34.509Z,99.90
2023-02-09T05:58:02.097Z,99.90
2023-02-09T06:00:29.629Z,99.90
2023-02-09T06:02:57.190Z,99.90
2023-02-09T06:05:24.739Z,99.90
2023-02-09T06:07:53.259Z,99.90
2023-02-09T06:10:20.836Z,99.90
2023-02-09T06:12:48.406Z,99.90
2023-02-09T06:17:52.715Z,99.90
2023-02-09T06:20:20.234Z,99.90
2023-02-09T06:22:47.780Z,99.90
2023-02-09T06:25:15.746Z,99.90
2023-02-09T06:27:43.293Z,99.90
2023-02-09T06:30:11.822Z,99.90
2023-02-09T06:32:39.408Z,99.90
2023-02-09T06:35:06.955Z,99.90
2023-02-09T06:37:34.481Z,99.90
2023-02-09T06:40:02.065Z,99.90
2023-02-09T06:42:29.598Z,99.90
2023-02-09T06:44:57.206Z,99.90
2023-02-09T06:47:24.766Z,99.90
2023-02-09T06:49:53.068Z,99.90
2023-02-09T06:52:20.614Z,99.90
2023-02-09T06:54:48.966Z,99.90
2023-02-09T06:57:16.520Z,99.90
2023-02-09T06:59:44.057Z,99.90
2023-02-09T07:02:11.639Z,99.90
2023-02-09T07:04:39.182Z,99.90
2023-02-09T07:07:06.718Z,99.90
2023-02-09T07:09:34.302Z,99.90
2023-02-09T07:12:01.825Z,99.90
2023-02-09T07:14:29.352Z,99.90
2023-02-09T07:16:57.675Z,99.90
2023-02-09T07:19:25.208Z,99.90
2023-02-09T07:21:52.734Z,99.90
2023-02-09T07:24:20.357Z,99.90
2023-02-09T07:26:47.900Z,99.90
2023-02-09T07:29:15.449Z,99.90
2023-02-09T07:31:43.180Z,99.90
2023-02-09T07:34:10.554Z,99.90
2023-02-09T07:36:38.866Z,99.90
2023-02-09T07:39:06.439Z,99.90
2023-02-09T07:41:33.963Z,99.90
2023-02-09T07:44:01.487Z,99.90
2023-02-09T07:46:29.145Z,99.90
2023-02-09T07:48:56.626Z,99.90
2023-02-09T07:51:27.658Z,99.90
2023-02-09T07:53:55.208Z,99.90
2023-02-09T07:56:23.503Z,99.90
2023-02-09T07:58:51.789Z,99.90
2023-02-09T08:01:19.400Z,99.90
2023-02-09T08:03:46.939Z,99.90
2023-02-09T08:06:41.967Z,99.90
2023-02-09T08:09:03.477Z,99.90
2023-02-09T08:11:44.635Z,99.90
2023-02-09T08:14:13.920Z,99.90
2023-02-09T08:16:41.470Z,99.90
2023-02-09T08:19:09.055Z,99.90
2023-02-09T08:21:36.600Z,99.90
2023-02-09T08:24:04.125Z,99.90
2023-02-09T08:26:32.477Z,99.90
2023-02-09T08:29:00.047Z,99.90
2023-02-09T08:31:27.622Z,99.90
2023-02-09T08:33:55.935Z,99.90
2023-02-09T08:36:23.462Z,99.90
2023-02-09T08:38:51.755Z,99.90
2023-02-09T08:41:19.330Z,99.90
2023-02-09T08:43:50.012Z,99.90
2023-02-09T08:46:17.648Z,99.90
2023-02-09T08:48:45.126Z,99.90
2023-02-09T08:51:12.669Z,99.90
2023-02-09T08:53:40.218Z,99.90
2023-02-09T08:56:07.781Z,99.90
2023-02-09T08:58:35.328Z,99.90
2023-02-09T09:01:02.950Z,99.90
2023-02-09T09:03:30.514Z,99.90
2023-02-09T09:05:58.009Z,99.90
2023-02-09T09:08:25.535Z,99.90
2023-02-09T09:10:53.109Z,99.90
2023-02-09T09:13:20.692Z,99.90
2023-02-09T09:15:48.601Z,99.90
2023-02-09T09:18:15.812Z,99.90
2023-02-09T09:20:43.360Z,99.90
2023-02-09T09:23:10.913Z,99.90
2023-02-09T09:25:41.420Z,99.90
2023-02-09T09:28:09.035Z,99.90
2023-02-09T09:30:37.274Z,99.90
2023-02-09T09:33:04.921Z,99.90
2023-02-09T09:35:32.398Z,99.90
2023-02-09T09:37:59.924Z,99.90
2023-02-09T09:40:28.262Z,99.90
2023-02-09T09:42:55.809Z,99.90
2023-02-09T09:45:23.353Z,99.90
2023-02-09T09:47:51.212Z,99.90
2023-02-09T09:50:18.752Z,99.90
2023-02-09T09:52:47.050Z,99.90
2023-02-09T09:55:14.616Z,99.90
2023-02-09T09:57:45.090Z,99.90
2023-02-09T10:00:18.641Z,99.90
2023-02-09T10:02:46.501Z,99.90
2023-02-09T10:05:14.029Z,99.90
2023-02-09T10:07:42.329Z,99.90
2023-02-09T10:10:13.001Z,99.90
2023-02-09T10:12:40.555Z,99.90
2023-02-09T10:15:29.224Z,99.90
2023-02-09T10:17:56.755Z,99.90
2023-02-09T10:20:42.382Z,99.90
2023-02-09T10:23:16.922Z,99.90
2023-02-09T10:26:03.633Z,99.90
2023-02-09T10:28:31.979Z,99.90
2023-02-09T10:30:59.537Z,99.90
2023-02-09T10:33:27.011Z,99.90
2023-02-09T10:35:55.314Z,99.90
2023-02-09T10:38:22.838Z,99.90
2023-02-09T10:40:51.176Z,99.90
2023-02-09T10:43:21.389Z,99.90
2023-02-09T10:45:49.227Z,99.90
2023-02-09T10:48:19.256Z,99.90
2023-02-09T10:50:58.541Z,99.90
2023-02-09T10:53:37.838Z,99.90
2023-02-09T10:56:05.375Z,99.90
2023-02-09T10:58:35.636Z,99.90
2023-02-09T11:01:11.990Z,99.90
2023-02-09T11:03:39.546Z,99.90
2023-02-09T11:06:15.984Z,99.90
2023-02-09T11:08:46.339Z,99.90
2023-02-09T11:11:19.691Z,99.90
2023-02-09T11:13:48.044Z,99.90
2023-02-09T11:16:53.064Z,99.90
2023-02-09T11:19:20.726Z,99.90
2023-02-09T11:22:03.244Z,99.90
2023-02-09T11:24:36.768Z,99.90
2023-02-09T11:27:05.060Z,99.30
2023-02-09T11:29:33.354Z,98.90
2023-02-09T11:32:03.833Z,98.90
2023-02-09T11:34:35.403Z,98.70
2023-02-09T11:37:24.250Z,98.60
2023-02-09T11:39:57.534Z,98.50
2023-02-09T11:42:43.101Z,98.20
2023-02-09T11:45:10.654Z,97.90
2023-02-09T11:47:50.216Z,97.30
2023-02-09T11:50:20.736Z,96.90
2023-02-09T11:52:48.259Z,96.40
2023-02-09T11:55:15.842Z,96.20
2023-02-09T11:57:46.139Z,95.90
2023-02-09T12:00:16.452Z,95.60
2023-02-09T12:02:49.819Z,95.20
2023-02-09T12:05:17.333Z,95.10
2023-02-09T12:08:05.893Z,94.20
2023-02-09T12:10:36.378Z,94.00
2023-02-09T12:13:09.455Z,93.70
2023-02-09T12:15:46.384Z,93.20
2023-02-09T12:18:19.411Z,93.20
2023-02-09T12:20:58.935Z,92.70
2023-02-09T12:23:41.488Z,92.40
2023-02-09T12:26:18.032Z,91.80
2023-02-09T12:28:48.956Z,90.50
2023-02-09T12:31:22.050Z,90.50
2023-02-09T12:33:50.254Z,90.20
2023-02-09T12:36:29.790Z,90.00
2023-02-09T12:39:23.703Z,89.10
2023-02-09T12:41:49.332Z,88.50
2023-02-09T12:44:16.845Z,87.50
2023-02-09T12:46:47.173Z,86.80
2023-02-09T12:49:14.746Z,86.20
2023-02-09T12:51:51.259Z,85.60
2023-02-09T12:54:42.949Z,85.40
2023-02-09T12:57:16.812Z,84.30
2023-02-09T12:59:53.278Z,83.20
2023-02-09T13:02:26.833Z,82.70
2023-02-09T13:05:18.688Z,82.00
2023-02-09T13:07:52.287Z,81.40
2023-02-09T13:10:44.194Z,80.60
2023-02-09T13:13:11.756Z,79.00
2023-02-09T13:15:48.583Z,77.40
2023-02-09T13:18:34.347Z,77.50
2023-02-09T13:21:04.820Z,77.50
2023-02-09T13:23:38.367Z,77.80
2023-02-09T13:26:23.944Z,77.70
2023-02-09T13:29:18.417Z,77.40
2023-02-09T13:31:34.185Z,76.30
2023-02-09T13:34:01.658Z,75.40
2023-02-09T13:36:43.917Z,74.20
2023-02-09T13:39:23.838Z,73.20
2023-02-09T13:41:51.456Z,73.20
2023-02-09T13:44:28.494Z,72.50
2023-02-09T13:46:59.628Z,72.50
2023-02-09T13:49:27.168Z,72.50
2023-02-09T13:52:10.230Z,72.30
2023-02-09T13:54:37.734Z,72.30
2023-02-09T13:57:05.241Z,71.40
2023-02-09T13:59:33.594Z,70.40
2023-02-09T14:02:01.163Z,70.40
2023-02-09T14:04:28.684Z,70.80
2023-02-09T14:06:59.201Z,69.70
2023-02-09T14:09:26.738Z,69.30
2023-02-09T14:11:55.049Z,69.60
2023-02-09T14:14:25.583Z,69.50
2023-02-09T14:17:24.351Z,69.60
2023-02-09T14:19:39.494Z,69.60
2023-02-09T14:22:06.972Z,69.30
2023-02-09T14:24:40.461Z,68.40
2023-02-09T14:27:20.748Z,68.50
2023-02-09T14:29:48.292Z,68.40
2023-02-09T14:32:34.201Z,68.30
2023-02-09T14:35:25.809Z,68.00
2023-02-09T14:37:53.401Z,68.30
2023-02-09T14:40:36.248Z,68.50
2023-02-09T14:43:07.386Z,67.90
2023-02-09T14:45:41.404Z,67.30
2023-02-09T14:48:21.830Z,67.50
2023-02-09T14:50:49.370Z,67.30
2023-02-09T14:53:16.908Z,67.70
2023-02-09T14:55:44.899Z,67.70
2023-02-09T14:58:12.025Z,67.70
2023-02-09T15:00:39.560Z,67.60
2023-02-09T15:03:07.982Z,67.70
2023-02-09T15:05:35.498Z,67.70
2023-02-09T15:08:05.713Z,68.10
2023-02-09T15:10:31.371Z,68.10
2023-02-09T15:12:58.908Z,68.30
2023-02-09T15:15:26.488Z,68.30
2023-02-09T15:17:54.006Z,68.80
2023-02-09T15:20:22.320Z,68.10
2023-02-09T15:22:49.846Z,68.10
2023-02-09T15:25:18.204Z,68.10
2023-02-09T15:27:51.209Z,68.10
2023-02-09T15:30:13.367Z,68.10
2023-02-09T15:32:40.942Z,68.00
2023-02-09T15:35:08.609Z,68.00
2023-02-09T15:37:36.130Z,68.00
2023-02-09T15:40:12.877Z,67.90
2023-02-09T15:43:01.304Z,68.00
2023-02-09T15:45:46.998Z,68.00
2023-02-09T15:48:14.547Z,67.40
2023-02-09T15:50:42.097Z,66.80
2023-02-09T15:53:09.710Z,67.00
2023-02-09T15:55:37.221Z,67.20
2023-02-09T15:58:04.750Z,67.50
2023-02-09T16:00:32.358Z,67.60
2023-02-09T16:03:00.017Z,67.80
2023-02-09T16:05:27.423Z,67.90
2023-02-09T16:07:54.989Z,67.90
2023-02-09T16:10:28.612Z,67.80
2023-02-09T16:12:56.152Z,68.20
2023-02-09T16:15:23.751Z,68.20
2023-02-09T16:17:51.257Z,68.50
2023-02-09T16:20:18.781Z,68.60
2023-02-09T16:22:46.328Z,68.80
2023-02-09T16:25:19.807Z,68.90
2023-02-09T16:27:47.354Z,69.10
2023-02-09T16:30:14.940Z,69.40
2023-02-09T16:32:42.482Z,70.00
2023-02-09T16:35:16.655Z,70.20
2023-02-09T16:37:37.885Z,70.60
2023-02-09T16:40:17.389Z,71.00
2023-02-09T16:42:48.343Z,72.60
2023-02-09T16:45:13.255Z,72.40
2023-02-09T16:47:40.831Z,72.80
2023-02-09T16:50:14.374Z,73.00
2023-02-09T16:52:41.905Z,73.60
2023-02-09T16:55:11.941Z,74.10
2023-02-09T16:57:39.542Z,74.40
2023-02-09T17:00:07.297Z,74.80
2023-02-09T17:02:44.412Z,74.80
2023-02-09T17:05:27.080Z,74.80
2023-02-09T17:07:55.469Z,75.20
2023-02-09T17:10:22.957Z,76.20
2023-02-09T17:12:52.595Z,76.20
2023-02-09T17:15:29.472Z,76.10
2023-02-09T17:17:47.152Z,76.50
2023-02-09T17:20:17.395Z,76.60
2023-02-09T17:22:45.373Z,77.00
2023-02-09T17:25:15.634Z,77.40
2023-02-09T17:27:43.148Z,77.80
2023-02-09T17:30:10.966Z,78.20
2023-02-09T17:32:39.262Z,78.40
2023-02-09T17:35:09.635Z,78.30
2023-02-09T17:37:37.572Z,78.60
2023-02-09T17:40:05.186Z,79.00
2023-02-09T17:42:32.745Z,79.50
2023-02-09T17:45:00.428Z,80.00
2023-02-09T17:47:27.919Z,80.80
2023-02-09T17:49:55.469Z,80.30
2023-02-09T17:52:23.053Z,80.80
2023-02-09T17:54:50.601Z,80.20
2023-02-09T17:57:18.177Z,80.50
2023-02-09T17:59:45.752Z,81.00
2023-02-09T18:02:15.982Z,81.70
2023-02-09T18:04:43.518Z,82.00
2023-02-09T18:07:11.101Z,82.60
2023-02-09T18:09:38.647Z,83.00
2023-02-09T18:12:08.937Z,83.40
2023-02-09T18:14:36.509Z,83.70
2023-02-09T18:17:04.094Z,84.20
2023-02-09T18:19:31.646Z,84.60
2023-02-09T18:21:59.259Z,85.20
2023-02-09T18:24:26.762Z,84.60
2023-02-09T18:26:54.278Z,84.70
2023-02-09T18:29:21.860Z,85.10
2023-02-09T18:31:49.414Z,85.50
2023-02-09T18:34:16.952Z,85.80
2023-02-09T18:36:44.535Z,86.20
2023-02-09T18:39:12.060Z,86.40
2023-02-09T18:41:39.604Z,86.60
2023-02-09T18:44:08.016Z,86.40
2023-02-09T18:46:35.587Z,86.40
2023-02-09T18:49:03.728Z,87.00
2023-02-09T18:51:31.458Z,87.60
2023-02-09T18:53:58.988Z,87.60
2023-02-09T18:56:26.521Z,88.30
2023-02-09T18:58:54.163Z,88.50
2023-02-09T19:01:21.711Z,88.00
2023-02-09T19:03:52.326Z,87.90
2023-02-09T19:06:19.913Z,88.30
2023-02-09T19:08:47.446Z,89.60
2023-02-09T19:11:14.984Z,89.30
2023-02-09T19:13:42.845Z,89.90
2023-02-09T19:16:10.438Z,90.30
2023-02-09T19:18:37.925Z,90.30
2023-02-09T19:21:06.761Z,90.00
2023-02-09T19:23:33.358Z,89.40
2023-02-09T19:26:00.913Z,88.90
2023-02-09T19:28:29.322Z,90.20
2023-02-09T19:30:56.840Z,90.50
2023-02-09T19:33:24.352Z,90.60
2023-02-09T19:35:57.635Z,90.80
2023-02-09T19:38:25.245Z,91.30
2023-02-09T19:41:05.085Z,91.20
2023-02-09T19:43:21.339Z,91.70
2023-02-09T19:45:48.831Z,91.70
2023-02-09T19:48:16.157Z,91.90
2023-02-09T19:50:43.746Z,92.00
2023-02-09T19:53:11.296Z,91.60
2023-02-09T19:55:38.811Z,91.30
2023-02-09T19:58:06.776Z,91.60
2023-02-09T20:00:34.305Z,92.00
2023-02-09T20:03:02.662Z,92.00
2023-02-09T20:05:30.176Z,91.90
2023-02-09T20:07:57.696Z,92.20
2023-02-09T20:10:26.012Z,92.70
2023-02-09T20:12:53.582Z,92.70
2023-02-09T20:15:21.125Z,93.10
2023-02-09T20:17:48.659Z,93.50
2023-02-09T20:20:16.998Z,94.10
2023-02-09T20:22:44.526Z,94.10
2023-02-09T20:25:12.101Z,94.20
2023-02-09T20:27:39.672Z,94.50
2023-02-09T20:30:07.439Z,94.70
2023-02-09T20:32:34.952Z,95.00
2023-02-09T20:35:02.526Z,95.20
2023-02-09T20:37:30.072Z,95.50
2023-02-09T20:39:57.587Z,95.10
2023-02-09T20:42:43.315Z,95.10
2023-02-09T20:45:28.863Z,95.50
2023-02-09T20:47:56.432Z,95.80
2023-02-09T20:50:24.727Z,96.70
2023-02-09T20:52:52.271Z,96.70
2023-02-09T20:55:20.584Z,97.20
2023-02-09T20:57:48.108Z,97.20
2023-02-09T21:00:15.764Z,97.40
2023-02-09T21:02:43.417Z,97.60
2023-02-09T21:05:11.663Z,98.00
2023-02-09T21:07:39.204Z,98.00
2023-02-09T21:10:06.800Z,98.20
2023-02-09T21:12:34.330Z,98.60
2023-02-09T21:15:01.857Z,98.20
2023-02-09T21:17:29.434Z,98.10
2023-02-09T21:19:56.963Z,97.50
2023-02-09T21:22:24.488Z,97.50
2023-02-09T21:24:52.063Z,97.70
2023-02-09T21:27:19.639Z,97.90
2023-02-09T21:29:47.181Z,98.10
2023-02-09T21:32:14.759Z,98.60
2023-02-09T21:34:42.297Z,98.50
2023-02-09T21:37:10.628Z,98.70
2023-02-09T21:39:38.189Z,98.60
2023-02-09T21:42:23.859Z,98.70
2023-02-09T21:44:51.457Z,99.10
2023-02-09T21:47:18.985Z,99.50
2023-02-09T21:49:46.515Z,99.90
2023-02-09T21:52:15.121Z,99.90
2023-02-09T21:54:42.657Z,99.90
2023-02-09T21:57:10.211Z,99.90
2023-02-09T21:59:38.097Z,99.90
2023-02-09T22:02:05.623Z,99.90
2023-02-09T22:04:33.976Z,99.90
2023-02-09T22:07:01.538Z,99.90
2023-02-09T22:09:29.068Z,99.90
2023-02-09T22:11:56.606Z,99.90
2023-02-09T22:14:24.199Z,99.90
2023-02-09T22:16:51.810Z,99.90
2023-02-09T22:19:19.298Z,99.90
2023-02-09T22:21:46.894Z,99.90
2023-02-09T22:24:14.425Z,99.90
2023-02-09T22:26:41.971Z,99.90
2023-02-09T22:29:09.568Z,99.90
2023-02-09T22:31:37.119Z,99.90
2023-02-09T22:34:04.652Z,99.90
2023-02-09T22:36:32.333Z,99.90
2023-02-09T22:38:59.754Z,99.90
2023-02-09T22:41:27.288Z,99.90
2023-02-09T22:43:55.993Z,99.90
2023-02-09T22:46:23.601Z,99.90
2023-02-09T22:48:53.563Z,99.90
2023-02-09T22:51:21.162Z,99.90
2023-02-09T22:53:48.687Z,99.90
2023-02-09T22:56:16.216Z,99.90
2023-02-09T22:58:44.568Z,99.90
2023-02-09T23:01:12.126Z,99.90
2023-02-09T23:03:39.688Z,99.90
2023-02-09T23:06:07.441Z,99.90
2023-02-09T23:08:34.991Z,99.90
2023-02-09T23:11:05.535Z,99.90
2023-02-09T23:13:33.104Z,99.90
2023-02-09T23:16:15.462Z,99.90
2023-02-09T23:18:51.701Z,99.90
2023-02-09T23:21:19.294Z,99.90
2023-02-09T23:23:46.775Z,99.90
2023-02-09T23:26:14.345Z,99.90
2023-02-09T23:28:41.895Z,99.90
2023-02-09T23:31:09.460Z,99.90
2023-02-09T23:33:37.009Z,99.90
2023-02-09T23:36:07.944Z,99.90
2023-02-09T23:38:35.514Z,99.90
2023-02-09T23:41:05.944Z,99.90
2023-02-09T23:43:33.489Z,99.90
2023-02-09T23:46:01.051Z,99.90
2023-02-09T23:48:28.627Z,99.90
2023-02-09T23:51:01.761Z,99.90
2023-02-09T23:53:30.050Z,99.90
2023-02-09T23:55:58.235Z,99.90
2023-02-09T23:58:25.791Z,99.90
